createdAt,value
2022-12-23T00:05:04.849Z,2.49
2022-12-23T00:10:10.629Z,2.61
2022-12-23T00:15:15.936Z,2.50
2022-12-23T00:20:21.382Z,2.35
2022-12-23T00:25:45.118Z,2.16
2022-12-23T00:30:54.616Z,2.04
2022-12-23T00:36:00.330Z,1.82
2022-12-23T00:41:27.307Z,1.64
2022-12-23T00:46:32.867Z,1.72
2022-12-23T00:51:38.314Z,1.88
2022-12-23T00:56:44.044Z,1.71
2022-12-23T01:02:09.250Z,1.68
2022-12-23T01:07:14.554Z,1.77
2022-12-23T01:12:20.827Z,1.91
2022-12-23T01:17:26.155Z,1.64
2022-12-23T01:22:31.448Z,1.56
2022-12-23T01:27:36.861Z,1.80
2022-12-23T01:32:42.139Z,1.72
2022-12-23T01:37:47.428Z,1.67
2022-12-23T01:42:52.579Z,1.70
2022-12-23T01:48:16.698Z,1.70
2022-12-23T01:53:34.220Z,1.57
2022-12-23T01:58:52.853Z,1.65
2022-12-23T02:04:01.451Z,1.71
2022-12-23T02:09:37.323Z,1.67
2022-12-23T02:15:30.654Z,1.46
2022-12-23T02:20:54.473Z,1.49
2022-12-23T02:26:34.999Z,1.38
2022-12-23T02:32:14.255Z,1.44
2022-12-23T02:37:59.781Z,1.43
2022-12-23T02:43:31.478Z,1.50
2022-12-23T02:48:44.631Z,1.52
2022-12-23T02:54:00.300Z,1.42
2022-12-23T02:59:43.954Z,1.31
2022-12-23T03:04:49.257Z,1.36
2022-12-23T03:10:32.729Z,1.53
2022-12-23T03:16:21.826Z,1.28
2022-12-23T03:21:51.163Z,1.13
2022-12-23T03:27:34.042Z,1.26
2022-12-23T03:38:19.849Z,1.25
2022-12-23T03:43:50.637Z,1.18
2022-12-23T03:49:07.013Z,1.27
2022-12-23T03:54:20.246Z,1.21
2022-12-23T03:59:29.578Z,1.09
2022-12-23T04:05:00.038Z,1.11
2022-12-23T04:10:07.133Z,1.10
2022-12-23T04:15:13.360Z,1.10
2022-12-23T04:20:18.901Z,1.15
2022-12-23T04:25:24.140Z,1.26
2022-12-23T04:30:33.885Z,1.18
2022-12-23T04:35:40.373Z,1.23
2022-12-23T04:40:48.740Z,1.35
2022-12-23T04:45:53.818Z,1.34
2022-12-23T04:51:02.019Z,1.46
2022-12-23T04:56:06.125Z,1.34
2022-12-23T05:01:12.130Z,1.37
2022-12-23T05:06:17.053Z,1.14
2022-12-23T05:11:21.178Z,0.68
2022-12-23T05:16:25.563Z,1.06
2022-12-23T05:21:30.044Z,0.94
2022-12-23T05:26:36.887Z,1.05
2022-12-23T05:31:42.220Z,1.08
2022-12-23T05:36:49.180Z,1.19
2022-12-23T05:41:53.368Z,1.09
2022-12-23T05:46:57.567Z,0.90
2022-12-23T05:52:01.681Z,1.03
2022-12-23T05:57:07.139Z,1.13
2022-12-23T06:02:11.679Z,1.07
2022-12-23T06:07:15.962Z,1.14
2022-12-23T06:12:19.949Z,1.17
2022-12-23T06:17:24.144Z,1.26
2022-12-23T06:22:28.216Z,1.44
2022-12-23T06:27:32.397Z,1.36
2022-12-23T06:32:38.830Z,1.34
2022-12-23T06:37:43.427Z,1.75
2022-12-23T06:42:48.962Z,1.81
2022-12-23T06:47:53.469Z,1.99
2022-12-23T06:52:57.614Z,1.73
2022-12-23T06:58:01.980Z,1.73
2022-12-23T07:03:06.192Z,1.97
2022-12-23T07:08:10.465Z,1.71
2022-12-23T07:13:14.579Z,1.76
2022-12-23T07:18:18.576Z,1.48
2022-12-23T07:23:22.588Z,1.81
2022-12-23T07:28:26.627Z,1.97
2022-12-23T07:33:34.857Z,2.27
2022-12-23T07:38:38.936Z,2.27
2022-12-23T07:43:43.030Z,2.40
2022-12-23T07:48:47.063Z,2.51
2022-12-23T07:53:52.032Z,2.46
2022-12-23T07:58:56.612Z,2.40
2022-12-23T08:04:01.078Z,2.36
2022-12-23T08:09:07.027Z,1.99
2022-12-23T08:14:11.223Z,2.07
2022-12-23T08:19:16.153Z,2.29
2022-12-23T08:24:20.115Z,2.19
2022-12-23T08:29:24.205Z,1.97
2022-12-23T08:34:28.402Z,2.15
2022-12-23T08:39:32.519Z,2.08
2022-12-23T08:44:36.679Z,2.14
2022-12-23T08:49:42.475Z,2.24
2022-12-23T08:54:49.116Z,2.17
2022-12-23T08:59:53.192Z,2.14
2022-12-23T09:04:57.427Z,2.33
2022-12-23T09:10:01.519Z,2.62
2022-12-23T09:15:07.074Z,2.83
2022-12-23T09:20:11.556Z,2.79
2022-12-23T09:25:16.222Z,2.49
2022-12-23T09:30:20.487Z,2.54
2022-12-23T09:35:24.747Z,2.63
2022-12-23T09:40:31.404Z,2.51
2022-12-23T09:45:58.929Z,2.68
2022-12-23T09:51:04.474Z,2.76
2022-12-23T09:56:20.657Z,2.41
2022-12-23T10:01:42.951Z,1.96
2022-12-23T10:07:05.336Z,2.37
2022-12-23T10:12:28.198Z,2.34
2022-12-23T10:17:47.107Z,2.71
2022-12-23T10:22:53.211Z,2.64
2022-12-23T10:27:57.290Z,2.59
2022-12-23T10:33:24.063Z,2.35
2022-12-23T10:38:55.991Z,2.25
2022-12-23T10:44:15.165Z,2.14
2022-12-23T10:49:38.205Z,2.19
2022-12-23T10:54:44.821Z,1.81
2022-12-23T10:59:48.926Z,1.77
2022-12-23T11:04:52.826Z,2.08
2022-12-23T11:10:04.482Z,2.21
2022-12-23T11:15:34.024Z,2.24
2022-12-23T11:20:42.396Z,2.42
2022-12-23T11:25:47.288Z,2.40
2022-12-23T11:30:57.275Z,2.53
2022-12-23T11:36:17.216Z,2.63
2022-12-23T11:41:46.478Z,2.59
2022-12-23T11:46:52.823Z,2.26
2022-12-23T11:52:21.013Z,1.83
2022-12-23T11:57:48.923Z,1.76
2022-12-23T12:02:56.752Z,1.90
2022-12-23T12:08:14.815Z,2.10
2022-12-23T12:14:04.899Z,2.02
2022-12-23T12:19:21.170Z,1.72
2022-12-23T12:24:32.684Z,1.51
2022-12-23T12:29:49.774Z,1.38
2022-12-23T12:35:30.860Z,1.36
2022-12-23T12:40:43.985Z,1.12
2022-12-23T12:46:14.564Z,1.13
2022-12-23T12:51:21.500Z,1.34
2022-12-23T12:56:36.284Z,1.50
2022-12-23T13:02:02.992Z,1.61
2022-12-23T13:07:32.129Z,1.60
2022-12-23T13:13:22.282Z,1.64
2022-12-23T13:18:46.295Z,1.58
2022-12-23T13:24:16.396Z,1.48
2022-12-23T13:29:45.070Z,1.26
2022-12-23T13:35:36.715Z,1.31
2022-12-23T13:41:06.467Z,1.23
2022-12-23T13:46:28.260Z,1.22
2022-12-23T13:51:41.658Z,1.32
2022-12-23T13:57:11.406Z,1.19
2022-12-23T14:03:04.352Z,1.23
2022-12-23T14:08:28.152Z,1.09
2022-12-23T14:13:58.544Z,1.29
2022-12-23T14:19:13.907Z,1.35
2022-12-23T14:25:03.259Z,1.10
2022-12-23T14:30:48.667Z,1.10
2022-12-23T14:35:57.904Z,1.15
2022-12-23T14:41:47.513Z,1.20
2022-12-23T14:46:55.053Z,1.46
2022-12-23T14:52:44.865Z,1.48
2022-12-23T14:58:07.427Z,1.42
2022-12-23T15:03:15.347Z,1.52
2022-12-23T15:08:40.761Z,1.65
2022-12-23T15:13:47.618Z,1.54
2022-12-23T15:18:55.892Z,1.64
2022-12-23T15:24:01.481Z,1.60
2022-12-23T15:29:08.681Z,1.50
2022-12-23T15:34:24.846Z,1.44
2022-12-23T15:39:37.153Z,1.35
2022-12-23T15:44:42.439Z,1.54
2022-12-23T15:49:47.606Z,1.35
2022-12-23T15:54:56.159Z,1.50
2022-12-23T16:00:02.446Z,1.46
2022-12-23T16:05:47.841Z,1.47
2022-12-23T16:11:39.111Z,1.54
2022-12-23T16:16:44.514Z,1.64
2022-12-23T16:21:50.382Z,1.79
2022-12-23T16:26:57.183Z,1.74
2022-12-23T16:32:02.622Z,1.80
2022-12-23T16:37:08.967Z,1.75
2022-12-23T16:42:14.430Z,1.89
2022-12-23T16:47:20.645Z,2.09
2022-12-23T16:52:25.886Z,2.25
2022-12-23T16:57:31.378Z,2.25
2022-12-23T17:02:36.892Z,2.34
2022-12-23T17:07:45.413Z,2.26
2022-12-23T17:12:53.724Z,2.22
2022-12-23T17:17:59.108Z,2.16
2022-12-23T17:23:04.594Z,2.19
2022-12-23T17:28:11.689Z,2.27
2022-12-23T17:33:20.055Z,2.25
2022-12-23T17:38:25.802Z,2.05
2022-12-23T17:43:31.089Z,2.11
2022-12-23T17:48:36.652Z,2.05
2022-12-23T17:53:42.085Z,2.40
2022-12-23T17:58:49.659Z,2.37
2022-12-23T18:03:56.087Z,2.42
2022-12-23T18:09:01.546Z,2.40
2022-12-23T18:14:20.638Z,2.60
2022-12-23T18:19:26.824Z,2.56
2022-12-23T18:24:32.426Z,2.59
2022-12-23T18:29:37.789Z,2.72
2022-12-23T18:34:43.067Z,2.87
2022-12-23T18:39:48.790Z,3.05
2022-12-23T18:44:54.229Z,3.16
2022-12-23T18:49:59.577Z,2.95
2022-12-23T18:55:07.334Z,2.82
2022-12-23T19:00:16.814Z,2.86
2022-12-23T19:05:28.878Z,2.88
2022-12-23T19:10:34.705Z,2.75
2022-12-23T19:15:43.147Z,2.84
2022-12-23T19:20:49.539Z,2.95
2022-12-23T19:25:55.640Z,3.02
2022-12-23T19:31:01.194Z,2.87
2022-12-23T19:36:12.330Z,2.81
2022-12-23T19:41:18.051Z,2.97
2022-12-23T19:46:23.586Z,2.89
2022-12-23T19:51:28.814Z,3.16
2022-12-23T19:56:35.750Z,3.41
2022-12-23T20:01:41.516Z,3.49
2022-12-23T20:06:47.281Z,3.42
2022-12-23T20:11:52.677Z,3.44
2022-12-23T20:16:57.857Z,3.61
2022-12-23T20:22:03.979Z,3.42
2022-12-23T20:27:12.104Z,3.23
2022-12-23T20:32:21.551Z,3.61
2022-12-23T20:37:30.157Z,3.64
2022-12-23T20:42:35.356Z,3.55
2022-12-23T20:47:40.814Z,3.36
2022-12-23T20:52:45.783Z,3.34
2022-12-23T20:57:51.025Z,3.54
2022-12-23T21:02:57.358Z,3.54
2022-12-23T21:08:03.223Z,3.75
2022-12-23T21:13:08.480Z,3.66
2022-12-23T21:18:14.307Z,3.67
2022-12-23T21:23:20.064Z,3.56
2022-12-23T21:28:25.409Z,3.61
2022-12-23T21:33:30.896Z,4.04
2022-12-23T21:38:38.587Z,4.05
2022-12-23T21:43:44.262Z,4.30
2022-12-23T21:48:51.208Z,3.90
2022-12-23T21:53:58.655Z,3.91
2022-12-23T21:59:12.562Z,4.12
2022-12-23T22:04:18.210Z,4.14
2022-12-23T22:09:23.684Z,4.17
2022-12-23T22:14:29.077Z,3.99
2022-12-23T22:19:35.628Z,3.89
2022-12-23T22:24:41.062Z,3.82
2022-12-23T22:29:46.419Z,3.85
2022-12-23T22:34:51.871Z,3.89
2022-12-23T22:39:57.153Z,3.98
2022-12-23T22:45:02.647Z,3.92
2022-12-23T22:50:09.692Z,3.77
2022-12-23T22:55:15.077Z,3.73
2022-12-23T23:00:20.773Z,3.72
2022-12-23T23:05:26.204Z,3.72
2022-12-23T23:10:32.425Z,3.75
2022-12-23T23:15:37.825Z,3.79
2022-12-23T23:20:43.391Z,3.83
2022-12-23T23:25:49.301Z,3.83
2022-12-23T23:31:16.697Z,3.74
2022-12-23T23:36:20.789Z,3.69
2022-12-23T23:41:26.192Z,3.69
2022-12-23T23:46:32.269Z,3.59
2022-12-23T23:51:37.602Z,3.44
2022-12-23T23:56:42.960Z,3.39
